Weather at Podkamennaya Tunguska Airport

Public forecast

Using degrees Celsius for public forecast. Weather courtesy of forecast.io.

Closest aviation weather report (METAR) to Podkamennaya Tunguska Airport

Closest report is Nizhnevartovsk Airport, 391.1 nm (724.3 km) W. Retrieved 2021/06/21 09:30 UTC (24 minutes ago):

USNN 210930Z 02004MPS 9999 SCT030CB 15/06 Q1012 R03/0///65 NOSIG RMK QFE755

Closest aviation forecast (TAF) to Podkamennaya Tunguska Airport

Closest forecast is Nizhnevartovsk Airport, 391.1 nm (724.3 km) W. Retrieved 2021/06/21 09:21 UTC (33 minutes ago):

TAF USNN 210747Z 2109/2209 36006G13MPS 9999 BKN030 TEMPO 2109/2115 -SHRA SCT020CB BECMG 2115/2116 35003G08MPS